Time;durP1;ratioP1;P1;durP2;ratioP2;P2;SDS_P1;SDS_P2;PMS_P1;PMS_P2;Temp;Humidity;BMP_temperature;BMP_pressure;BME280_temperature;BME280_humidity;BME280_pressure;Samples;Min_cycle;Max_cycle;Signal;HPM_P1;HPM_P2
2021/12/11 00:19:37;;;;;;;60.03;30.77;;;2.50;91.20;;;;;;5045467;28;20219;-92
2021/12/11 00:22:13;;;;;;;62.03;32.10;;;2.50;91.00;;;;;;5053344;28;20169;-94
2021/12/11 00:24:39;;;;;;;65.33;32.53;;;2.40;91.00;;;;;;5056242;28;20193;-92
2021/12/11 00:27:10;;;;;;;62.60;31.07;;;2.30;90.90;;;;;;5056252;28;20196;-93
2021/12/11 00:29:37;;;;;;;64.43;32.00;;;2.30;91.10;;;;;;5054214;28;20170;-92
2021/12/11 00:32:05;;;;;;;57.97;31.20;;;2.30;91.20;;;;;;5051778;28;20208;-92
2021/12/11 00:34:32;;;;;;;62.00;31.03;;;2.30;91.20;;;;;;5055569;28;20177;-92
2021/12/11 00:37:02;;;;;;;60.93;30.77;;;2.40;91.20;;;;;;5057858;28;20181;-92
2021/12/11 00:39:30;;;;;;;61.53;30.73;;;2.30;91.10;;;;;;5057827;28;20157;-95
2021/12/11 00:42:00;;;;;;;70.53;33.03;;;2.20;91.10;;;;;;5057838;28;20172;-95
2021/12/11 00:44:45;;;;;;;63.17;30.00;;;2.30;91.30;;;;;;5061452;28;20177;-94
2021/12/11 00:47:14;;;;;;;59.43;30.90;;;2.30;91.40;;;;;;5060675;28;20165;-94
2021/12/11 00:49:51;;;;;;;71.67;32.50;;;2.30;91.20;;;;;;5061494;28;20145;-95
2021/12/11 00:52:17;;;;;;;64.97;32.20;;;2.30;91.20;;;;;;5061471;28;20157;-95
2021/12/11 00:54:45;;;;;;;63.70;32.93;;;2.30;91.30;;;;;;5060844;28;20165;-94
2021/12/11 00:57:12;;;;;;;63.27;31.83;;;2.30;91.40;;;;;;5061056;28;20189;-95
2021/12/11 00:59:38;;;;;;;60.90;30.43;;;2.30;91.40;;;;;;5060647;28;20171;-92
2021/12/11 01:02:05;;;;;;;60.37;31.47;;;2.40;91.50;;;;;;5059779;28;20180;-94
2021/12/11 01:04:41;;;;;;;58.40;30.37;;;2.30;91.30;;;;;;5060610;28;20191;-94
2021/12/11 01:07:21;;;;;;;63.67;32.00;;;2.30;91.30;;;;;;5061047;28;20176;-94
2021/12/11 01:09:58;;;;;;;56.93;29.17;;;2.30;91.40;;;;;;5061151;28;20148;-95
2021/12/11 01:12:48;;;;;;;58.17;27.73;;;2.30;91.30;;;;;;5061022;28;20173;-95
2021/12/11 01:15:19;;;;;;;58.00;28.83;;;2.30;91.30;;;;;;5060949;28;20193;-94
2021/12/11 01:18:22;;;;;;;58.63;30.27;;;2.20;91.30;;;;;;5060740;28;20172;-94
2021/12/11 01:21:02;;;;;;;56.93;29.23;;;2.10;91.40;;;;;;5061219;28;20153;-95
2021/12/11 01:26:04;;;;;;;61.43;28.87;;;2.20;91.50;;;;;;5061260;28;20240;-94
2021/12/11 01:28:31;;;;;;;57.43;28.17;;;2.00;91.40;;;;;;5060665;28;20157;-95
2021/12/11 01:30:59;;;;;;;60.23;29.37;;;2.00;91.60;;;;;;5060663;28;20169;-95
2021/12/11 01:33:25;;;;;;;61.93;30.43;;;2.00;91.80;;;;;;5060636;28;20161;-92
2021/12/11 01:35:51;;;;;;;63.43;31.57;;;2.10;92.00;;;;;;5060535;28;20248;-95
2021/12/11 01:38:23;;;;;;;66.63;30.43;;;2.20;91.80;;;;;;5060538;28;20177;-95
2021/12/11 01:40:52;;;;;;;67.37;31.77;;;2.30;91.80;;;;;;5059962;28;20172;-92
2021/12/11 01:43:21;;;;;;;59.23;30.53;;;2.10;91.60;;;;;;5058663;28;20176;-92
2021/12/11 01:45:51;;;;;;;59.53;28.93;;;2.10;91.70;;;;;;5058544;28;20236;-93
2021/12/11 01:48:24;;;;;;;58.33;32.80;;;2.10;91.80;;;;;;5053070;28;20168;-93
2021/12/11 01:50:55;;;;;;;60.53;29.07;;;2.20;91.80;;;;;;5047933;28;20180;-92
2021/12/11 01:53:30;;;;;;;66.47;30.33;;;2.20;91.80;;;;;;5047486;28;20165;-91
2021/12/11 01:56:03;;;;;;;58.67;30.47;;;2.20;91.80;;;;;;5045715;28;20201;-91
2021/12/11 01:58:41;;;;;;;58.93;31.13;;;2.20;91.80;;;;;;5044911;28;20168;-91
2021/12/11 02:01:28;;;;;;;59.70;29.00;;;2.20;91.70;;;;;;5049219;28;20169;-91
2021/12/11 02:03:55;;;;;;;52.70;28.20;;;2.10;91.70;;;;;;5047936;28;20197;-92
2021/12/11 02:06:26;;;;;;;62.70;31.03;;;2.10;91.80;;;;;;5047299;28;20204;-92
2021/12/11 02:08:51;;;;;;;63.77;30.73;;;2.10;91.90;;;;;;5047426;28;20177;-92
2021/12/11 02:11:21;;;;;;;60.50;29.70;;;2.00;91.90;;;;;;5045808;28;20260;-92
2021/12/11 02:14:00;;;;;;;57.73;30.13;;;2.00;92.00;;;;;;5048889;28;20177;-92
2021/12/11 02:16:30;;;;;;;64.03;32.03;;;1.90;92.10;;;;;;5053197;28;20244;-92
2021/12/11 02:19:04;;;;;;;64.90;30.83;;;1.90;92.30;;;;;;5050671;28;20203;-92
2021/12/11 02:21:34;;;;;;;62.00;30.33;;;2.00;92.40;;;;;;5051112;28;20172;-92
2021/12/11 02:24:05;;;;;;;64.93;30.20;;;2.00;92.30;;;;;;5053869;28;20287;-92
2021/12/11 02:26:32;;;;;;;61.30;29.27;;;2.00;92.30;;;;;;5052833;28;20216;-92
2021/12/11 02:29:13;;;;;;;63.87;31.50;;;1.90;92.30;;;;;;5052396;28;20189;-92
2021/12/11 02:31:57;;;;;;;69.70;31.47;;;1.90;92.30;;;;;;5052304;28;20652;-93
2021/12/11 02:34:34;;;;;;;63.70;29.97;;;2.00;92.40;;;;;;5052070;28;20165;-93
2021/12/11 02:37:07;;;;;;;62.10;30.53;;;2.00;92.40;;;;;;5052745;28;20203;-93
2021/12/11 02:39:48;;;;;;;65.67;30.70;;;2.00;92.40;;;;;;5052737;28;20164;-93
2021/12/11 02:42:28;;;;;;;63.03;31.47;;;1.90;92.30;;;;;;5052481;28;20168;-93
2021/12/11 02:45:00;;;;;;;61.33;31.33;;;1.80;92.30;;;;;;5051977;28;20194;-93
2021/12/11 02:47:39;;;;;;;63.00;29.97;;;1.80;92.40;;;;;;5051585;28;20165;-93
2021/12/11 02:50:08;;;;;;;58.30;29.63;;;1.90;92.50;;;;;;5052387;28;20191;-93
2021/12/11 02:52:43;;;;;;;60.17;29.83;;;1.90;92.50;;;;;;5051677;28;20219;-93
2021/12/11 02:55:22;;;;;;;65.70;29.43;;;1.90;92.50;;;;;;5051673;28;20203;-93
2021/12/11 02:57:59;;;;;;;67.20;31.03;;;1.80;92.30;;;;;;5051478;28;20196;-91
2021/12/11 03:00:33;;;;;;;58.43;30.60;;;1.70;92.30;;;;;;5051691;28;20258;-93
2021/12/11 03:03:04;;;;;;;56.67;28.60;;;1.60;92.40;;;;;;5051350;28;20168;-92
2021/12/11 03:05:42;;;;;;;56.07;28.03;;;1.70;92.50;;;;;;5051686;28;20204;-92
2021/12/11 03:08:10;;;;;;;55.93;28.23;;;1.80;92.50;;;;;;5051473;28;20218;-92
2021/12/11 03:10:38;;;;;;;57.67;28.43;;;1.80;92.50;;;;;;5051484;28;20190;-92
2021/12/11 03:13:04;;;;;;;54.93;28.60;;;1.80;92.40;;;;;;5051449;28;20180;-92
2021/12/11 03:15:31;;;;;;;54.10;27.47;;;1.80;92.40;;;;;;5050824;28;20232;-92
2021/12/11 03:17:57;;;;;;;56.83;27.60;;;1.80;92.40;;;;;;5051104;28;20196;-93
2021/12/11 03:20:23;;;;;;;51.90;27.10;;;1.80;92.40;;;;;;5050293;28;20175;-93
2021/12/11 03:22:49;;;;;;;52.33;26.87;;;1.80;92.30;;;;;;5051110;28;20240;-92
2021/12/11 03:25:23;;;;;;;51.33;26.57;;;1.60;92.20;;;;;;5051046;28;20285;-93
2021/12/11 03:27:49;;;;;;;49.73;27.67;;;1.70;92.20;;;;;;5050532;28;20204;-93
2021/12/11 03:30:21;;;;;;;48.80;26.13;;;1.70;92.20;;;;;;5050828;28;20177;-93
2021/12/11 03:32:51;;;;;;;54.70;29.30;;;1.80;92.20;;;;;;5050614;28;20171;-92
2021/12/11 03:35:18;;;;;;;56.20;28.00;;;1.70;92.20;;;;;;5050709;28;20201;-92
2021/12/11 03:37:44;;;;;;;55.23;28.07;;;1.60;92.10;;;;;;5051581;28;20188;-93
2021/12/11 03:40:11;;;;;;;52.80;28.33;;;1.50;92.10;;;;;;5050643;28;20179;-93
2021/12/11 03:42:39;;;;;;;50.13;26.50;;;1.50;92.30;;;;;;5050537;28;20181;-92
2021/12/11 03:45:14;;;;;;;55.33;27.73;;;1.50;92.30;;;;;;5051411;28;20306;-92
2021/12/11 03:47:48;;;;;;;53.80;28.37;;;1.60;92.30;;;;;;5050803;28;20188;-93
2021/12/11 03:50:17;;;;;;;49.83;24.73;;;1.60;92.30;;;;;;5051804;28;20176;-93
2021/12/11 03:52:45;;;;;;;47.53;25.63;;;1.60;92.30;;;;;;5052074;28;20240;-93
2021/12/11 03:55:14;;;;;;;42.90;23.77;;;1.70;92.30;;;;;;5051690;28;20197;-93
2021/12/11 03:57:41;;;;;;;55.47;26.43;;;1.60;92.20;;;;;;5050062;28;20200;-93
2021/12/11 04:00:12;;;;;;;46.63;24.77;;;1.60;92.20;;;;;;5050312;28;20277;-93
2021/12/11 04:02:38;;;;;;;50.70;25.20;;;1.60;92.20;;;;;;5052049;28;20168;-93
2021/12/11 04:05:07;;;;;;;56.83;27.87;;;1.50;92.10;;;;;;5051458;28;20212;-93
2021/12/11 04:07:39;;;;;;;66.57;27.97;;;1.50;92.20;;;;;;5051687;28;20180;-93
2021/12/11 04:10:07;;;;;;;63.23;28.30;;;1.40;92.40;;;;;;5051488;28;20167;-92
2021/12/11 04:12:33;;;;;;;67.57;31.00;;;1.30;93.00;;;;;;5050472;28;20174;-92
2021/12/11 04:14:59;;;;;;;64.77;29.83;;;1.30;93.30;;;;;;5050046;28;20189;-93
2021/12/11 04:17:28;;;;;;;68.17;29.43;;;1.30;93.60;;;;;;5052438;28;20206;-92
2021/12/11 04:20:00;;;;;;;66.53;29.83;;;1.30;93.70;;;;;;5053982;28;20175;-91
2021/12/11 04:22:26;;;;;;;71.00;31.40;;;1.30;93.80;;;;;;5053695;28;20168;-93
2021/12/11 04:24:52;;;;;;;63.93;30.63;;;1.30;93.90;;;;;;5054037;28;20207;-92
2021/12/11 04:27:20;;;;;;;70.70;31.47;;;1.30;94.00;;;;;;5054270;28;20179;-93
2021/12/11 04:29:49;;;;;;;66.77;29.73;;;1.40;94.20;;;;;;5052785;28;20233;-92
2021/12/11 04:32:15;;;;;;;67.17;29.70;;;1.30;94.20;;;;;;5050741;28;20181;-91
2021/12/11 04:34:41;;;;;;;68.60;30.63;;;1.30;94.40;;;;;;5049707;28;20187;-91
2021/12/11 04:37:17;;;;;;;76.33;30.23;;;1.40;94.50;;;;;;5050572;28;20204;-93
2021/12/11 04:39:48;;;;;;;68.70;31.20;;;1.50;94.60;;;;;;5051180;28;20172;-93
2021/12/11 04:42:26;;;;;;;73.90;30.73;;;1.40;94.70;;;;;;5051959;28;20176;-93
2021/12/11 04:44:53;;;;;;;69.17;30.73;;;1.40;94.70;;;;;;5049583;28;20257;-92
2021/12/11 04:47:35;;;;;;;73.47;30.27;;;1.40;94.70;;;;;;5051799;28;20169;-92
2021/12/11 04:50:11;;;;;;;68.00;31.40;;;1.40;94.70;;;;;;5051650;28;20168;-92
2021/12/11 04:52:59;;;;;;;74.83;31.90;;;1.30;94.70;;;;;;5052643;28;20161;-93
2021/12/11 04:55:53;;;;;;;70.77;33.47;;;1.30;94.70;;;;;;5053170;28;20213;-93
2021/12/11 05:01:12;;;;;;;76.77;31.20;;;1.20;94.60;;;;;;5052816;28;20180;-90
2021/12/11 05:11:20;;;;;;;68.77;29.50;;;1.10;94.50;;;;;;5052212;28;20170;-91
2021/12/11 05:13:45;;;;;;;79.67;31.73;;;1.00;94.50;;;;;;5051760;28;20238;-93
2021/12/11 05:16:14;;;;;;;71.07;31.17;;;1.00;94.50;;;;;;5051133;28;20195;-92
2021/12/11 05:18:43;;;;;;;71.63;32.03;;;1.00;94.40;;;;;;5051301;28;20181;-93
2021/12/11 05:21:13;;;;;;;68.10;30.00;;;1.00;94.40;;;;;;5050945;28;20185;-92
2021/12/11 05:23:39;;;;;;;61.47;28.70;;;0.90;94.30;;;;;;5050132;28;20275;-92
2021/12/11 05:26:05;;;;;;;68.77;29.03;;;0.90;94.20;;;;;;5050731;28;20197;-92
2021/12/11 05:28:32;;;;;;;72.27;29.93;;;0.80;94.20;;;;;;5051119;28;20173;-92
2021/12/11 05:31:02;;;;;;;72.13;28.87;;;0.70;94.20;;;;;;5051540;28;20273;-93
2021/12/11 05:33:28;;;;;;;70.17;30.03;;;0.70;94.20;;;;;;5051512;28;20171;-93
2021/12/11 05:35:54;;;;;;;76.83;32.13;;;0.80;94.20;;;;;;5050899;28;20209;-92
2021/12/11 05:38:22;;;;;;;64.00;29.67;;;0.80;94.30;;;;;;5051586;28;20269;-93
2021/12/11 05:40:52;;;;;;;71.40;29.97;;;0.90;94.30;;;;;;5051428;28;20253;-92
2021/12/11 05:43:19;;;;;;;75.50;32.30;;;0.90;94.30;;;;;;5051173;28;20196;-92
2021/12/11 05:45:45;;;;;;;70.40;29.83;;;0.90;94.30;;;;;;5050697;28;20194;-93
2021/12/11 05:48:11;;;;;;;63.33;28.87;;;1.00;94.30;;;;;;5050824;28;20245;-92
2021/12/11 05:50:41;;;;;;;64.97;29.20;;;1.00;94.30;;;;;;5050338;28;20175;-92
2021/12/11 05:53:07;;;;;;;67.03;27.83;;;0.90;94.30;;;;;;5050886;28;20173;-92
2021/12/11 05:55:33;;;;;;;63.90;28.90;;;0.80;94.30;;;;;;5050620;28;20207;-93
2021/12/11 05:58:09;;;;;;;67.10;28.93;;;0.90;94.30;;;;;;5049996;28;20183;-92
2021/12/11 06:00:43;;;;;;;59.63;27.60;;;0.90;94.30;;;;;;5050018;28;20256;-93
2021/12/11 06:03:09;;;;;;;71.03;30.70;;;1.00;94.40;;;;;;5049955;28;20250;-92
2021/12/11 06:05:35;;;;;;;74.07;29.73;;;1.10;94.40;;;;;;5049551;28;20244;-92
2021/12/11 06:08:03;;;;;;;64.10;28.20;;;1.00;94.30;;;;;;5050278;28;20174;-92
2021/12/11 06:10:29;;;;;;;69.40;29.70;;;1.10;94.30;;;;;;5048834;28;20176;-93
2021/12/11 06:12:57;;;;;;;63.33;27.53;;;1.10;94.30;;;;;;5049003;28;20238;-92
2021/12/11 06:15:23;;;;;;;76.00;30.33;;;1.10;94.20;;;;;;5048572;28;20242;-92
2021/12/11 06:17:49;;;;;;;69.77;29.73;;;1.10;94.30;;;;;;5048535;28;20197;-92
2021/12/11 06:20:23;;;;;;;62.07;27.97;;;1.10;94.20;;;;;;5047263;28;20198;-92
2021/12/11 06:22:49;;;;;;;59.43;27.33;;;1.10;94.20;;;;;;5048622;28;20164;-92
2021/12/11 06:25:23;;;;;;;63.63;27.83;;;1.00;94.10;;;;;;5048602;28;20236;-92
2021/12/11 06:27:49;;;;;;;66.07;28.17;;;1.00;94.10;;;;;;5048686;28;20234;-92
2021/12/11 06:30:15;;;;;;;64.10;28.63;;;1.20;94.20;;;;;;5048421;28;20233;-92
2021/12/11 06:32:42;;;;;;;69.67;29.20;;;1.30;94.10;;;;;;5130375;23;20210;-92
2021/12/11 06:35:27;;;;;;;63.87;27.97;;;1.40;93.90;;;;;;5034334;28;20230;-93
2021/12/11 06:37:52;;;;;;;62.33;29.13;;;1.50;93.70;;;;;;5034280;28;20173;-93
2021/12/11 06:40:20;;;;;;;67.87;26.73;;;1.60;93.40;;;;;;5033230;28;20182;-92
2021/12/11 06:42:46;;;;;;;61.97;26.90;;;1.70;93.10;;;;;;5034092;28;20211;-92
2021/12/11 06:45:12;;;;;;;61.30;26.43;;;1.70;92.90;;;;;;5033983;28;20207;-92
2021/12/11 06:47:38;;;;;;;57.30;26.83;;;1.70;92.80;;;;;;5033855;28;20203;-93
2021/12/11 06:50:05;;;;;;;53.07;24.77;;;1.60;92.80;;;;;;5033748;28;20182;-92
2021/12/11 06:52:31;;;;;;;59.67;27.70;;;1.60;93.00;;;;;;5033557;28;20671;-93
2021/12/11 06:54:57;;;;;;;56.93;26.33;;;1.50;93.10;;;;;;5033500;28;20179;-93
2021/12/11 06:57:23;;;;;;;53.90;27.00;;;1.50;93.10;;;;;;5033710;28;20207;-93
2021/12/11 06:59:49;;;;;;;53.67;26.83;;;1.50;93.20;;;;;;5034055;28;20638;-92
2021/12/11 07:02:19;;;;;;;55.73;25.67;;;1.60;93.20;;;;;;5033940;28;20196;-93
2021/12/11 07:04:46;;;;;;;59.07;27.67;;;1.60;93.20;;;;;;5033623;28;20205;-93
2021/12/11 07:07:18;;;;;;;60.83;27.63;;;1.60;93.30;;;;;;5033967;28;20266;-92
2021/12/11 07:09:44;;;;;;;51.60;25.80;;;1.70;93.30;;;;;;5033903;28;20648;-93
2021/12/11 07:12:11;;;;;;;59.60;28.10;;;1.80;93.20;;;;;;5033816;28;20185;-92
2021/12/11 07:14:36;;;;;;;53.10;25.40;;;1.90;93.00;;;;;;5033661;28;20580;-93
2021/12/11 07:17:02;;;;;;;51.80;27.77;;;1.90;92.60;;;;;;5034908;28;20175;-93
2021/12/11 07:19:28;;;;;;;55.10;25.80;;;1.90;92.50;;;;;;5033824;28;20180;-93
2021/12/11 07:21:55;;;;;;;57.63;27.43;;;2.00;92.30;;;;;;5033554;28;20203;-93
2021/12/11 07:24:27;;;;;;;57.60;25.83;;;2.00;92.20;;;;;;5034244;28;20212;-93
2021/12/11 07:26:53;;;;;;;54.93;26.33;;;2.00;92.20;;;;;;5033582;28;20190;-92
2021/12/11 07:29:20;;;;;;;47.33;25.03;;;2.00;92.20;;;;;;5033635;28;20175;-92
2021/12/11 07:31:48;;;;;;;54.20;26.47;;;2.10;92.10;;;;;;5033647;28;20175;-93
2021/12/11 07:34:16;;;;;;;49.30;24.70;;;2.10;92.00;;;;;;5034364;28;20205;-93
2021/12/11 07:36:43;;;;;;;53.17;25.87;;;2.10;92.00;;;;;;5034796;28;20174;-92
2021/12/11 07:39:11;;;;;;;53.63;26.03;;;2.10;91.90;;;;;;5033394;28;20265;-93
2021/12/11 07:41:37;;;;;;;51.47;25.57;;;2.20;91.90;;;;;;5033390;28;20227;-92
2021/12/11 07:44:04;;;;;;;51.73;25.37;;;2.10;91.90;;;;;;5033635;28;20239;-92
2021/12/11 07:46:30;;;;;;;52.73;26.47;;;2.10;92.10;;;;;;5033590;28;20180;-92
2021/12/11 07:48:57;;;;;;;47.80;24.10;;;2.10;92.20;;;;;;5033347;28;20553;-92
2021/12/11 07:51:26;;;;;;;51.67;24.50;;;2.10;92.40;;;;;;5034176;28;20179;-92
2021/12/11 07:53:54;;;;;;;49.07;25.93;;;2.00;92.50;;;;;;5037652;28;20196;-93
2021/12/11 07:56:21;;;;;;;52.27;25.27;;;2.00;92.60;;;;;;5037702;28;20184;-93
2021/12/11 07:58:49;;;;;;;53.53;26.73;;;2.10;92.60;;;;;;5037515;28;20230;-93
2021/12/11 08:01:16;;;;;;;52.83;25.83;;;2.10;92.60;;;;;;5037718;28;20232;-91
2021/12/11 08:03:42;;;;;;;49.57;26.63;;;2.10;92.60;;;;;;5037711;28;20207;-91
2021/12/11 08:06:10;;;;;;;49.53;25.33;;;2.10;92.60;;;;;;5037457;28;20520;-91
2021/12/11 08:08:37;;;;;;;55.93;26.47;;;2.10;92.70;;;;;;5037643;28;20180;-91
2021/12/11 08:11:06;;;;;;;51.13;25.53;;;2.10;92.70;;;;;;5037603;28;20184;-91
2021/12/11 08:13:32;;;;;;;55.30;27.73;;;2.10;92.70;;;;;;5037320;28;20251;-92
2021/12/11 08:15:57;;;;;;;53.27;26.13;;;2.10;92.60;;;;;;5037701;28;20182;-93
2021/12/11 08:18:25;;;;;;;48.60;26.33;;;2.20;92.50;;;;;;5038121;28;20543;-92
2021/12/11 08:20:52;;;;;;;45.70;24.30;;;2.20;92.50;;;;;;5038132;28;20702;-92
2021/12/11 08:23:19;;;;;;;52.17;26.43;;;2.20;92.50;;;;;;5036241;28;20242;-93
2021/12/11 08:25:48;;;;;;;46.67;24.17;;;2.20;92.40;;;;;;5036690;28;20171;-93
2021/12/11 08:28:18;;;;;;;50.07;23.60;;;2.20;92.50;;;;;;5036623;28;20174;-92
2021/12/11 08:30:46;;;;;;;48.03;23.47;;;2.30;92.50;;;;;;5036777;28;20619;-92
2021/12/11 08:33:13;;;;;;;52.03;24.33;;;2.20;92.50;;;;;;5036775;28;20206;-93
2021/12/11 08:35:39;;;;;;;45.33;24.83;;;2.20;92.40;;;;;;5036794;28;20212;-92
2021/12/11 08:38:07;;;;;;;48.03;25.20;;;2.30;92.20;;;;;;5036547;28;20225;-92
2021/12/11 08:40:36;;;;;;;44.30;23.50;;;2.30;92.10;;;;;;5037913;28;20205;-92
2021/12/11 08:43:05;;;;;;;52.30;26.13;;;2.30;92.20;;;;;;5036639;28;20249;-93
2021/12/11 08:45:56;;;;;;;49.00;23.90;;;2.30;92.40;;;;;;5036639;28;20180;-93
2021/12/11 08:48:24;;;;;;;42.93;24.20;;;2.30;92.50;;;;;;5037416;28;20174;-93
2021/12/11 08:50:54;;;;;;;46.03;22.17;;;2.30;92.50;;;;;;5036604;28;20173;-93
2021/12/11 08:53:20;;;;;;;44.60;23.30;;;2.40;92.30;;;;;;5036912;28;20251;-92
2021/12/11 08:55:49;;;;;;;58.33;26.30;;;2.30;92.30;;;;;;5038092;28;20196;-93
2021/12/11 08:58:17;;;;;;;45.87;24.70;;;2.30;92.30;;;;;;5042344;28;20201;-93
2021/12/11 09:01:19;;;;;;;50.77;25.47;;;2.40;92.30;;;;;;5038607;28;20183;-93
2021/12/11 09:04:05;;;;;;;46.13;24.73;;;2.40;92.40;;;;;;5031694;28;20232;-92
2021/12/11 09:06:38;;;;;;;54.27;26.13;;;2.40;92.40;;;;;;5035801;28;20226;-93
2021/12/11 09:09:12;;;;;;;48.13;24.97;;;2.40;92.30;;;;;;5036038;28;20182;-92
2021/12/11 09:12:01;;;;;;;52.73;25.03;;;2.50;92.30;;;;;;5035911;28;20210;-92
2021/12/11 09:14:36;;;;;;;43.87;24.23;;;2.50;92.10;;;;;;5036118;28;20568;-92
2021/12/11 09:17:17;;;;;;;54.50;25.43;;;2.50;91.90;;;;;;5036002;28;20205;-92
2021/12/11 09:19:48;;;;;;;40.13;23.30;;;2.60;91.80;;;;;;5035872;28;20180;-92
2021/12/11 09:22:36;;;;;;;48.87;24.57;;;2.60;91.80;;;;;;5036032;28;20179;-92
2021/12/11 09:25:11;;;;;;;46.47;25.43;;;2.60;91.90;;;;;;5035823;28;20204;-92
2021/12/11 09:27:43;;;;;;;45.93;25.30;;;2.70;91.90;;;;;;5035903;28;20260;-92
2021/12/11 09:30:12;;;;;;;41.97;22.80;;;2.70;91.80;;;;;;5034901;28;20658;-91
2021/12/11 09:32:52;;;;;;;43.63;22.60;;;2.80;91.60;;;;;;5035280;28;20208;-92
2021/12/11 09:35:38;;;;;;;46.90;23.37;;;2.80;91.50;;;;;;5035892;28;20201;-91
2021/12/11 09:38:16;;;;;;;41.00;22.80;;;2.80;91.40;;;;;;5036329;28;20634;-92
2021/12/11 09:40:41;;;;;;;39.93;23.33;;;2.80;91.30;;;;;;5035233;28;20186;-92
2021/12/11 09:43:23;;;;;;;42.67;19.97;;;2.80;91.40;;;;;;5036931;28;20194;-92
2021/12/11 09:45:49;;;;;;;35.90;19.17;;;2.80;91.10;;;;;;5035394;28;20164;-92
2021/12/11 09:48:17;;;;;;;41.87;22.93;;;2.80;91.30;;;;;;5035311;28;20258;-92
2021/12/11 09:51:08;;;;;;;35.90;21.00;;;2.80;91.30;;;;;;5035461;28;20179;-92
2021/12/11 09:53:37;;;;;;;44.23;25.33;;;2.90;91.40;;;;;;5035291;28;20672;-92
2021/12/11 09:56:07;;;;;;;43.10;23.63;;;2.90;91.50;;;;;;5035542;28;20231;-92
2021/12/11 09:58:36;;;;;;;47.00;26.07;;;2.90;91.50;;;;;;5035246;28;20671;-92
2021/12/11 10:01:07;;;;;;;39.17;23.57;;;3.00;91.50;;;;;;5035637;28;20187;-92
2021/12/11 10:03:40;;;;;;;46.27;24.27;;;3.00;91.40;;;;;;5036530;28;20219;-92
2021/12/11 10:06:14;;;;;;;44.67;24.07;;;3.00;91.20;;;;;;5034958;28;20177;-92
2021/12/11 10:08:45;;;;;;;41.37;21.17;;;3.10;90.90;;;;;;5034829;28;20174;-92
2021/12/11 10:11:28;;;;;;;39.87;22.53;;;3.10;90.80;;;;;;5036074;28;20252;-92
2021/12/11 10:13:57;;;;;;;46.37;22.87;;;3.10;90.80;;;;;;5034816;28;20197;-92
2021/12/11 10:16:28;;;;;;;36.23;22.50;;;3.10;90.80;;;;;;5034327;28;20191;-92
2021/12/11 10:18:54;;;;;;;38.20;22.93;;;3.00;90.80;;;;;;5035109;28;20193;-92
2021/12/11 10:21:24;;;;;;;33.80;17.80;;;3.00;90.80;;;;;;5034712;28;20321;-92
2021/12/11 10:23:52;;;;;;;38.20;21.73;;;3.00;90.60;;;;;;5035207;28;20207;-92
2021/12/11 10:26:22;;;;;;;31.43;19.13;;;3.00;90.60;;;;;;5034195;28;20176;-92
2021/12/11 10:28:51;;;;;;;34.47;20.20;;;3.00;90.30;;;;;;5034102;28;20253;-92
2021/12/11 10:31:41;;;;;;;33.80;20.13;;;3.00;90.40;;;;;;5034311;28;20243;-92
2021/12/11 10:34:11;;;;;;;42.83;19.70;;;3.00;90.20;;;;;;5031582;28;20217;-92
2021/12/11 10:36:44;;;;;;;39.63;22.53;;;3.00;90.20;;;;;;5034088;28;20578;-92
2021/12/11 10:39:12;;;;;;;34.73;19.87;;;3.10;90.20;;;;;;5034213;28;20186;-92
2021/12/11 10:41:38;;;;;;;36.50;21.13;;;3.10;90.20;;;;;;5034417;28;20181;-92
2021/12/11 10:44:16;;;;;;;36.10;21.37;;;3.10;90.30;;;;;;5033951;28;20710;-92
2021/12/11 10:46:57;;;;;;;30.70;19.17;;;3.10;90.10;;;;;;5034402;28;20620;-92
2021/12/11 10:49:24;;;;;;;27.23;17.20;;;3.20;89.90;;;;;;5035771;28;20157;-92
2021/12/11 10:51:54;;;;;;;40.43;18.90;;;3.30;89.90;;;;;;5034067;28;20176;-92
2021/12/11 10:54:21;;;;;;;36.07;21.50;;;3.30;89.70;;;;;;5033940;28;20215;-91
2021/12/11 10:56:49;;;;;;;37.23;18.97;;;3.30;89.50;;;;;;5033986;28;20187;-92
2021/12/11 10:59:23;;;;;;;34.87;20.63;;;3.40;89.30;;;;;;5035671;28;20738;-92
2021/12/11 11:02:04;;;;;;;24.83;16.00;;;3.50;89.30;;;;;;5033744;28;20223;-92
2021/12/11 11:04:40;;;;;;;29.33;17.70;;;3.50;89.30;;;;;;5034797;28;20289;-92
2021/12/11 11:07:07;;;;;;;29.50;18.70;;;3.70;88.50;;;;;;5033631;28;20306;-92
2021/12/11 11:09:33;;;;;;;29.20;14.70;;;3.70;88.70;;;;;;5033433;28;20172;-92
2021/12/11 11:12:03;;;;;;;25.73;13.23;;;3.80;88.00;;;;;;5033776;28;20655;-92
2021/12/11 11:14:30;;;;;;;25.50;14.93;;;3.80;87.60;;;;;;5033768;28;20200;-92
2021/12/11 11:17:01;;;;;;;31.33;17.87;;;3.80;87.70;;;;;;5034927;28;20179;-92
2021/12/11 11:19:29;;;;;;;27.50;16.10;;;3.80;87.50;;;;;;5033515;28;20177;-92
2021/12/11 11:21:58;;;;;;;27.90;18.00;;;3.80;87.60;;;;;;5036086;28;20260;-92
2021/12/11 11:24:30;;;;;;;28.50;17.57;;;3.90;87.20;;;;;;5032752;28;20687;-91
2021/12/11 11:26:57;;;;;;;28.23;15.77;;;3.90;87.30;;;;;;5032550;28;20230;-91
2021/12/11 11:29:27;;;;;;;29.00;17.43;;;3.90;87.20;;;;;;5034086;28;20211;-91
2021/12/11 11:31:56;;;;;;;28.37;18.80;;;3.90;86.60;;;;;;5032649;28;20518;-91
2021/12/11 11:34:26;;;;;;;27.83;18.60;;;3.90;86.60;;;;;;5034122;28;20689;-92
2021/12/11 11:36:55;;;;;;;31.67;18.37;;;3.90;87.00;;;;;;5032800;28;20176;-91
2021/12/11 11:39:22;;;;;;;29.97;16.17;;;3.80;87.10;;;;;;5033860;28;20169;-91
2021/12/11 11:41:58;;;;;;;28.07;17.43;;;3.80;87.20;;;;;;5032704;28;20176;-91
2021/12/11 11:44:27;;;;;;;30.30;20.17;;;3.90;87.30;;;;;;5032580;28;20707;-92
2021/12/11 11:46:57;;;;;;;31.73;17.93;;;3.90;87.40;;;;;;5032530;28;20180;-91
2021/12/11 11:49:23;;;;;;;32.80;18.83;;;4.00;87.20;;;;;;5033585;28;20638;-91
2021/12/11 11:51:54;;;;;;;31.20;20.27;;;4.00;87.40;;;;;;5033838;28;20172;-91
2021/12/11 11:54:24;;;;;;;33.03;19.80;;;4.00;87.00;;;;;;5032259;28;20211;-91
2021/12/11 11:57:08;;;;;;;31.93;19.00;;;4.00;87.20;;;;;;5032321;28;20199;-92
2021/12/11 11:59:35;;;;;;;30.40;19.00;;;4.00;87.40;;;;;;5033671;28;20165;-91
2021/12/11 12:02:08;;;;;;;28.30;18.87;;;3.90;87.40;;;;;;5033530;28;20173;-91
2021/12/11 12:04:35;;;;;;;34.83;19.00;;;3.90;87.50;;;;;;5033278;28;20204;-92
2021/12/11 12:07:03;;;;;;;34.33;17.20;;;3.90;87.20;;;;;;5032254;28;20176;-92
2021/12/11 12:09:32;;;;;;;31.57;17.63;;;3.90;87.20;;;;;;5032360;28;20177;-91
2021/12/11 12:11:59;;;;;;;29.27;18.80;;;3.90;87.30;;;;;;5032270;28;20545;-91
2021/12/11 12:14:30;;;;;;;28.00;19.37;;;3.90;87.30;;;;;;5033306;28;20771;-91
2021/12/11 12:16:57;;;;;;;24.90;15.03;;;3.80;87.50;;;;;;5032144;28;20215;-90
2021/12/11 12:19:23;;;;;;;21.40;14.63;;;3.90;87.00;;;;;;5032473;28;20263;-91
2021/12/11 12:21:53;;;;;;;28.70;16.27;;;3.90;87.20;;;;;;5033224;28;20223;-90
2021/12/11 12:24:26;;;;;;;27.30;16.33;;;3.90;87.20;;;;;;5032256;28;20613;-90
2021/12/11 12:26:53;;;;;;;27.90;16.93;;;3.90;86.60;;;;;;5033803;28;20531;-90
2021/12/11 12:29:20;;;;;;;25.60;16.10;;;3.90;86.50;;;;;;5032498;28;20177;-90
2021/12/11 12:31:56;;;;;;;27.07;15.50;;;3.90;86.80;;;;;;5031894;28;20230;-90
2021/12/11 12:34:24;;;;;;;20.17;11.70;;;4.00;86.50;;;;;;5032045;28;20302;-90
2021/12/11 12:36:50;;;;;;;26.83;17.37;;;3.90;86.30;;;;;;5031611;28;20645;-90
2021/12/11 12:39:21;;;;;;;22.43;10.30;;;3.90;86.30;;;;;;5035928;28;20191;-90
2021/12/11 12:42:03;;;;;;;29.40;17.00;;;4.00;86.50;;;;;;5035460;28;20554;-90
2021/12/11 12:44:30;;;;;;;24.00;13.27;;;4.00;86.30;;;;;;5035457;28;20215;-90
2021/12/11 12:47:03;;;;;;;32.67;16.27;;;4.00;86.30;;;;;;5035218;28;20195;-90
2021/12/11 12:49:31;;;;;;;27.13;17.40;;;4.00;86.00;;;;;;5035174;28;20180;-90
2021/12/11 12:52:03;;;;;;;27.63;16.47;;;4.00;86.50;;;;;;5035211;28;20175;-90
2021/12/11 12:54:29;;;;;;;28.50;17.00;;;4.00;86.50;;;;;;5035111;28;20192;-90
2021/12/11 12:57:07;;;;;;;28.97;17.87;;;4.00;86.40;;;;;;5035840;28;20182;-90
2021/12/11 12:59:39;;;;;;;22.30;13.37;;;4.00;86.30;;;;;;5035050;28;20168;-90
2021/12/11 13:02:11;;;;;;;25.27;17.20;;;3.90;86.60;;;;;;5035849;28;20263;-90
2021/12/11 13:04:43;;;;;;;26.93;16.67;;;3.90;86.40;;;;;;5034937;28;20220;-90
2021/12/11 13:07:13;;;;;;;34.33;18.60;;;3.90;86.70;;;;;;5035016;28;20175;-90
2021/12/11 13:09:43;;;;;;;26.77;16.63;;;3.90;87.00;;;;;;5034815;28;20180;-91
2021/12/11 13:12:18;;;;;;;29.07;16.87;;;4.00;87.00;;;;;;5034790;28;20165;-91
2021/12/11 13:14:47;;;;;;;26.10;16.20;;;4.00;86.70;;;;;;5034766;28;20165;-91
2021/12/11 13:17:18;;;;;;;18.10;12.10;;;3.90;86.70;;;;;;5034590;28;20204;-91
2021/12/11 13:19:48;;;;;;;28.83;14.27;;;4.00;86.10;;;;;;5034711;28;20169;-91
2021/12/11 13:22:28;;;;;;;23.23;12.77;;;4.00;86.50;;;;;;5035001;28;20180;-91
2021/12/11 13:24:59;;;;;;;22.63;12.13;;;4.10;86.60;;;;;;5035451;28;20196;-90